sensor_id;sensor_type;location;lat;lon;timestamp;temperature;humidity
563;DHT22;266;49.514;8.294;2023-08-06T00:00:25;15.70;99.90
563;DHT22;266;49.514;8.294;2023-08-06T00:02:53;15.80;99.90
563;DHT22;266;49.514;8.294;2023-08-06T00:05:23;15.80;99.90
563;DHT22;266;49.514;8.294;2023-08-06T00:07:51;15.80;99.90
563;DHT22;266;49.514;8.294;2023-08-06T00:10:19;15.80;99.90
563;DHT22;266;49.514;8.294;2023-08-06T00:12:47;15.80;99.90
563;DHT22;266;49.514;8.294;2023-08-06T00:15:15;15.90;99.90
563;DHT22;266;49.514;8.294;2023-08-06T00:17:43;15.90;99.90
563;DHT22;266;49.514;8.294;2023-08-06T00:20:11;15.90;99.90
563;DHT22;266;49.514;8.294;2023-08-06T00:22:41;15.90;99.90
563;DHT22;266;49.514;8.294;2023-08-06T00:25:09;15.90;99.90
563;DHT22;266;49.514;8.294;2023-08-06T00:27:37;15.90;99.90
563;DHT22;266;49.514;8.294;2023-08-06T00:30:06;15.90;99.90
563;DHT22;266;49.514;8.294;2023-08-06T00:32:34;15.90;99.90
563;DHT22;266;49.514;8.294;2023-08-06T00:35:02;15.90;99.90
563;DHT22;266;49.514;8.294;2023-08-06T00:37:32;15.90;99.90
563;DHT22;266;49.514;8.294;2023-08-06T00:40:01;15.90;99.90
563;DHT22;266;49.514;8.294;2023-08-06T00:42:29;15.80;99.90
563;DHT22;266;49.514;8.294;2023-08-06T00:44:57;15.90;99.90
563;DHT22;266;49.514;8.294;2023-08-06T00:47:25;15.90;99.90
563;DHT22;266;49.514;8.294;2023-08-06T00:49:54;15.80;99.90
563;DHT22;266;49.514;8.294;2023-08-06T00:52:22;15.80;99.90
563;DHT22;266;49.514;8.294;2023-08-06T00:54:50;15.80;99.90
563;DHT22;266;49.514;8.294;2023-08-06T00:57:20;15.80;99.90
563;DHT22;266;49.514;8.294;2023-08-06T00:59:50;15.90;99.90
563;DHT22;266;49.514;8.294;2023-08-06T01:02:18;15.80;99.90
563;DHT22;266;49.514;8.294;2023-08-06T01:04:46;15.90;99.90
563;DHT22;266;49.514;8.294;2023-08-06T01:07:21;15.90;99.90
563;DHT22;266;49.514;8.294;2023-08-06T01:10:00;15.90;99.90
563;DHT22;266;49.514;8.294;2023-08-06T01:12:39;15.80;99.90
563;DHT22;266;49.514;8.294;2023-08-06T01:15:14;15.90;99.90
563;DHT22;266;49.514;8.294;2023-08-06T01:17:44;15.90;99.90
563;DHT22;266;49.514;8.294;2023-08-06T01:20:12;15.80;99.90
563;DHT22;266;49.514;8.294;2023-08-06T01:22:42;15.80;99.90
563;DHT22;266;49.514;8.294;2023-08-06T01:25:10;15.80;99.90
563;DHT22;266;49.514;8.294;2023-08-06T01:27:46;15.80;99.90
563;DHT22;266;49.514;8.294;2023-08-06T01:30:17;15.80;99.90
563;DHT22;266;49.514;8.294;2023-08-06T01:32:49;15.70;99.90
563;DHT22;266;49.514;8.294;2023-08-06T01:35:19;15.70;99.90
563;DHT22;266;49.514;8.294;2023-08-06T01:37:50;15.70;99.90
563;DHT22;266;49.514;8.294;2023-08-06T01:40:19;15.70;99.90
563;DHT22;266;49.514;8.294;2023-08-06T01:42:46;15.70;99.90
563;DHT22;266;49.514;8.294;2023-08-06T01:45:14;15.70;99.90
563;DHT22;266;49.514;8.294;2023-08-06T01:47:42;15.60;99.90
563;DHT22;266;49.514;8.294;2023-08-06T01:50:10;15.60;99.90
563;DHT22;266;49.514;8.294;2023-08-06T01:52:38;15.60;99.90
563;DHT22;266;49.514;8.294;2023-08-06T01:55:08;15.60;99.90
563;DHT22;266;49.514;8.294;2023-08-06T01:57:36;15.60;99.90
563;DHT22;266;49.514;8.294;2023-08-06T02:00:05;15.60;99.90
563;DHT22;266;49.514;8.294;2023-08-06T02:02:33;15.60;99.90
563;DHT22;266;49.514;8.294;2023-08-06T02:05:01;15.60;99.90
563;DHT22;266;49.514;8.294;2023-08-06T02:07:29;15.60;99.90
563;DHT22;266;49.514;8.294;2023-08-06T02:09:57;15.70;99.90
563;DHT22;266;49.514;8.294;2023-08-06T02:12:27;15.60;99.90
563;DHT22;266;49.514;8.294;2023-08-06T02:14:55;15.60;99.90
563;DHT22;266;49.514;8.294;2023-08-06T02:17:22;15.60;99.90
563;DHT22;266;49.514;8.294;2023-08-06T02:19:50;15.60;99.90
563;DHT22;266;49.514;8.294;2023-08-06T02:22:19;15.60;99.90
563;DHT22;266;49.514;8.294;2023-08-06T02:24:49;15.50;99.90
563;DHT22;266;49.514;8.294;2023-08-06T02:27:17;15.50;99.90
563;DHT22;266;49.514;8.294;2023-08-06T02:29:46;15.50;99.90
563;DHT22;266;49.514;8.294;2023-08-06T02:32:14;15.50;99.90
563;DHT22;266;49.514;8.294;2023-08-06T02:34:42;15.60;99.90
563;DHT22;266;49.514;8.294;2023-08-06T02:37:10;15.60;99.90
563;DHT22;266;49.514;8.294;2023-08-06T02:39:38;15.60;99.90
563;DHT22;266;49.514;8.294;2023-08-06T02:42:07;15.70;99.90
563;DHT22;266;49.514;8.294;2023-08-06T02:44:35;15.70;99.90
563;DHT22;266;49.514;8.294;2023-08-06T02:47:05;15.80;99.90
563;DHT22;266;49.514;8.294;2023-08-06T02:49:33;15.80;99.90
563;DHT22;266;49.514;8.294;2023-08-06T02:52:01;15.80;99.90
563;DHT22;266;49.514;8.294;2023-08-06T02:54:29;15.90;99.90
563;DHT22;266;49.514;8.294;2023-08-06T02:56:57;15.90;99.90
563;DHT22;266;49.514;8.294;2023-08-06T02:59:25;15.90;99.90
563;DHT22;266;49.514;8.294;2023-08-06T03:01:53;15.90;99.90
563;DHT22;266;49.514;8.294;2023-08-06T03:04:23;15.80;99.90
563;DHT22;266;49.514;8.294;2023-08-06T03:06:51;15.80;99.90
563;DHT22;266;49.514;8.294;2023-08-06T03:09:19;15.80;99.90
563;DHT22;266;49.514;8.294;2023-08-06T03:11:47;15.70;99.90
563;DHT22;266;49.514;8.294;2023-08-06T03:14:16;15.70;99.90
563;DHT22;266;49.514;8.294;2023-08-06T03:16:43;15.70;99.90
563;DHT22;266;49.514;8.294;2023-08-06T03:19:11;15.70;99.90
563;DHT22;266;49.514;8.294;2023-08-06T03:21:40;15.70;99.90
563;DHT22;266;49.514;8.294;2023-08-06T03:24:08;15.60;99.90
563;DHT22;266;49.514;8.294;2023-08-06T03:26:36;15.70;99.90
563;DHT22;266;49.514;8.294;2023-08-06T03:29:04;15.60;99.90
563;DHT22;266;49.514;8.294;2023-08-06T03:31:32;15.60;99.90
563;DHT22;266;49.514;8.294;2023-08-06T03:34:00;15.60;99.90
563;DHT22;266;49.514;8.294;2023-08-06T03:36:28;15.60;99.90
563;DHT22;266;49.514;8.294;2023-08-06T03:38:57;15.60;99.90
563;DHT22;266;49.514;8.294;2023-08-06T03:41:25;15.60;99.90
563;DHT22;266;49.514;8.294;2023-08-06T03:43:53;15.60;99.90
563;DHT22;266;49.514;8.294;2023-08-06T03:46:21;15.60;99.90
563;DHT22;266;49.514;8.294;2023-08-06T03:48:49;15.60;99.90
563;DHT22;266;49.514;8.294;2023-08-06T03:51:17;15.60;99.90
563;DHT22;266;49.514;8.294;2023-08-06T03:53:45;15.60;99.90
563;DHT22;266;49.514;8.294;2023-08-06T03:56:14;15.60;99.90
563;DHT22;266;49.514;8.294;2023-08-06T03:58:42;15.70;99.90
563;DHT22;266;49.514;8.294;2023-08-06T04:01:10;15.70;99.90
563;DHT22;266;49.514;8.294;2023-08-06T04:03:38;15.80;99.90
563;DHT22;266;49.514;8.294;2023-08-06T04:06:07;15.80;99.90
563;DHT22;266;49.514;8.294;2023-08-06T04:08:34;15.80;99.90
563;DHT22;266;49.514;8.294;2023-08-06T04:11:02;15.80;99.90
563;DHT22;266;49.514;8.294;2023-08-06T04:13:32;15.80;99.90
563;DHT22;266;49.514;8.294;2023-08-06T04:16:03;15.90;99.90
563;DHT22;266;49.514;8.294;2023-08-06T04:18:32;15.90;99.90
563;DHT22;266;49.514;8.294;2023-08-06T04:21:01;15.90;99.90
563;DHT22;266;49.514;8.294;2023-08-06T04:23:29;16.00;99.90
563;DHT22;266;49.514;8.294;2023-08-06T04:25:57;16.00;99.90
563;DHT22;266;49.514;8.294;2023-08-06T04:28:25;16.00;99.90
563;DHT22;266;49.514;8.294;2023-08-06T04:30:55;16.00;99.90
563;DHT22;266;49.514;8.294;2023-08-06T04:33:23;16.00;99.90
563;DHT22;266;49.514;8.294;2023-08-06T04:35:54;16.00;99.90
563;DHT22;266;49.514;8.294;2023-08-06T04:38:23;16.00;99.90
563;DHT22;266;49.514;8.294;2023-08-06T04:40:52;16.00;99.90
563;DHT22;266;49.514;8.294;2023-08-06T04:43:20;16.00;99.90
563;DHT22;266;49.514;8.294;2023-08-06T04:45:49;16.00;99.90
563;DHT22;266;49.514;8.294;2023-08-06T04:48:19;16.00;99.90
563;DHT22;266;49.514;8.294;2023-08-06T04:50:48;16.00;99.90
563;DHT22;266;49.514;8.294;2023-08-06T04:53:16;16.00;99.90
563;DHT22;266;49.514;8.294;2023-08-06T04:55:44;16.00;99.90
563;DHT22;266;49.514;8.294;2023-08-06T04:58:13;16.00;99.90
563;DHT22;266;49.514;8.294;2023-08-06T05:00:42;16.00;99.90
563;DHT22;266;49.514;8.294;2023-08-06T05:03:09;15.90;99.90
563;DHT22;266;49.514;8.294;2023-08-06T05:05:41;15.90;99.90
563;DHT22;266;49.514;8.294;2023-08-06T05:08:14;15.90;99.90
563;DHT22;266;49.514;8.294;2023-08-06T05:10:43;15.80;99.90
563;DHT22;266;49.514;8.294;2023-08-06T05:13:11;15.90;99.90
563;DHT22;266;49.514;8.294;2023-08-06T05:15:39;15.90;99.90
563;DHT22;266;49.514;8.294;2023-08-06T05:18:09;15.90;99.90
563;DHT22;266;49.514;8.294;2023-08-06T05:20:37;15.80;99.90
563;DHT22;266;49.514;8.294;2023-08-06T05:23:06;15.80;99.90
563;DHT22;266;49.514;8.294;2023-08-06T05:25:34;15.80;99.90
563;DHT22;266;49.514;8.294;2023-08-06T05:28:03;15.90;99.90
563;DHT22;266;49.514;8.294;2023-08-06T05:30:31;15.90;99.90
563;DHT22;266;49.514;8.294;2023-08-06T05:32:59;15.90;99.90
563;DHT22;266;49.514;8.294;2023-08-06T05:35:27;15.90;99.90
563;DHT22;266;49.514;8.294;2023-08-06T05:37:55;15.90;99.90
563;DHT22;266;49.514;8.294;2023-08-06T05:40:24;15.90;99.90
563;DHT22;266;49.514;8.294;2023-08-06T05:42:54;15.90;99.90
563;DHT22;266;49.514;8.294;2023-08-06T05:45:22;16.00;99.90
563;DHT22;266;49.514;8.294;2023-08-06T05:47:50;16.00;99.90
563;DHT22;266;49.514;8.294;2023-08-06T05:50:20;16.00;99.90
563;DHT22;266;49.514;8.294;2023-08-06T05:52:48;16.00;99.90
563;DHT22;266;49.514;8.294;2023-08-06T05:55:16;16.00;99.90
563;DHT22;266;49.514;8.294;2023-08-06T05:57:46;16.00;99.90
563;DHT22;266;49.514;8.294;2023-08-06T06:00:14;16.00;99.90
563;DHT22;266;49.514;8.294;2023-08-06T06:02:42;16.10;99.90
563;DHT22;266;49.514;8.294;2023-08-06T06:05:10;16.10;99.90
563;DHT22;266;49.514;8.294;2023-08-06T06:07:38;16.10;99.90
563;DHT22;266;49.514;8.294;2023-08-06T06:10:07;16.10;99.90
563;DHT22;266;49.514;8.294;2023-08-06T06:12:35;16.00;99.90
563;DHT22;266;49.514;8.294;2023-08-06T06:15:05;16.00;99.90
563;DHT22;266;49.514;8.294;2023-08-06T06:17:33;16.10;99.90
563;DHT22;266;49.514;8.294;2023-08-06T06:20:02;16.00;99.90
563;DHT22;266;49.514;8.294;2023-08-06T06:22:30;16.00;99.90
563;DHT22;266;49.514;8.294;2023-08-06T06:24:58;16.00;99.90
563;DHT22;266;49.514;8.294;2023-08-06T06:27:26;16.10;99.90
563;DHT22;266;49.514;8.294;2023-08-06T06:29:54;16.10;99.90
563;DHT22;266;49.514;8.294;2023-08-06T06:32:23;16.10;99.90
563;DHT22;266;49.514;8.294;2023-08-06T06:34:52;16.10;99.90
563;DHT22;266;49.514;8.294;2023-08-06T06:37:19;16.20;99.90
563;DHT22;266;49.514;8.294;2023-08-06T06:39:47;16.20;99.90
563;DHT22;266;49.514;8.294;2023-08-06T06:42:15;16.20;99.90
563;DHT22;266;49.514;8.294;2023-08-06T06:44:43;16.30;99.90
563;DHT22;266;49.514;8.294;2023-08-06T06:47:11;16.30;99.90
563;DHT22;266;49.514;8.294;2023-08-06T06:49:40;16.40;99.90
563;DHT22;266;49.514;8.294;2023-08-06T06:52:08;16.50;99.90
563;DHT22;266;49.514;8.294;2023-08-06T06:54:37;16.50;99.90
563;DHT22;266;49.514;8.294;2023-08-06T06:57:05;16.60;99.90
563;DHT22;266;49.514;8.294;2023-08-06T06:59:34;16.70;99.90
563;DHT22;266;49.514;8.294;2023-08-06T07:02:02;16.70;99.90
563;DHT22;266;49.514;8.294;2023-08-06T07:04:30;16.80;99.90
563;DHT22;266;49.514;8.294;2023-08-06T07:06:59;16.80;99.90
563;DHT22;266;49.514;8.294;2023-08-06T07:09:27;16.80;99.90
563;DHT22;266;49.514;8.294;2023-08-06T07:11:55;16.90;99.90
563;DHT22;266;49.514;8.294;2023-08-06T07:14:24;16.90;99.90
563;DHT22;266;49.514;8.294;2023-08-06T07:16:52;17.00;99.90
563;DHT22;266;49.514;8.294;2023-08-06T07:19:20;17.10;99.90
563;DHT22;266;49.514;8.294;2023-08-06T07:21:48;17.20;99.90
563;DHT22;266;49.514;8.294;2023-08-06T07:24:19;17.30;99.90
563;DHT22;266;49.514;8.294;2023-08-06T07:26:47;17.30;99.90
563;DHT22;266;49.514;8.294;2023-08-06T07:29:15;17.40;99.90
563;DHT22;266;49.514;8.294;2023-08-06T07:31:47;17.40;99.90
563;DHT22;266;49.514;8.294;2023-08-06T07:34:16;17.30;99.90
563;DHT22;266;49.514;8.294;2023-08-06T07:36:44;17.30;99.90
563;DHT22;266;49.514;8.294;2023-08-06T07:39:12;17.30;99.90
563;DHT22;266;49.514;8.294;2023-08-06T07:41:42;17.40;99.90
563;DHT22;266;49.514;8.294;2023-08-06T07:44:10;17.30;99.90
563;DHT22;266;49.514;8.294;2023-08-06T07:46:38;17.30;99.90
563;DHT22;266;49.514;8.294;2023-08-06T07:49:06;17.40;99.90
563;DHT22;266;49.514;8.294;2023-08-06T07:51:34;17.30;99.90
563;DHT22;266;49.514;8.294;2023-08-06T07:54:02;17.40;99.90
563;DHT22;266;49.514;8.294;2023-08-06T07:56:30;17.40;99.90
563;DHT22;266;49.514;8.294;2023-08-06T07:59:00;17.50;99.90
563;DHT22;266;49.514;8.294;2023-08-06T08:01:28;17.60;99.90
563;DHT22;266;49.514;8.294;2023-08-06T08:03:56;17.80;99.90
563;DHT22;266;49.514;8.294;2023-08-06T08:06:23;18.10;99.90
563;DHT22;266;49.514;8.294;2023-08-06T08:08:51;18.40;99.90
563;DHT22;266;49.514;8.294;2023-08-06T08:11:20;18.50;99.90
563;DHT22;266;49.514;8.294;2023-08-06T08:13:49;18.70;99.90
563;DHT22;266;49.514;8.294;2023-08-06T08:16:18;18.80;99.90
563;DHT22;266;49.514;8.294;2023-08-06T08:18:46;18.80;99.90
563;DHT22;266;49.514;8.294;2023-08-06T08:21:14;18.80;99.90
563;DHT22;266;49.514;8.294;2023-08-06T08:23:42;18.70;99.90
563;DHT22;266;49.514;8.294;2023-08-06T08:26:10;18.60;99.90
563;DHT22;266;49.514;8.294;2023-08-06T08:28:38;18.50;99.90
563;DHT22;266;49.514;8.294;2023-08-06T08:31:08;18.60;99.90
563;DHT22;266;49.514;8.294;2023-08-06T08:33:38;18.70;99.90
563;DHT22;266;49.514;8.294;2023-08-06T08:36:06;18.80;99.90
563;DHT22;266;49.514;8.294;2023-08-06T08:38:34;18.90;99.90
563;DHT22;266;49.514;8.294;2023-08-06T08:41:02;18.90;99.90
563;DHT22;266;49.514;8.294;2023-08-06T08:43:30;18.90;99.90
563;DHT22;266;49.514;8.294;2023-08-06T08:45:59;19.00;99.90
563;DHT22;266;49.514;8.294;2023-08-06T08:48:28;19.20;99.90
563;DHT22;266;49.514;8.294;2023-08-06T08:50:57;19.40;99.90
563;DHT22;266;49.514;8.294;2023-08-06T08:53:26;19.60;99.90
563;DHT22;266;49.514;8.294;2023-08-06T08:55:55;19.60;99.90
563;DHT22;266;49.514;8.294;2023-08-06T08:58:23;19.50;99.90
563;DHT22;266;49.514;8.294;2023-08-06T09:00:52;19.40;99.90
563;DHT22;266;49.514;8.294;2023-08-06T09:03:20;19.20;99.90
563;DHT22;266;49.514;8.294;2023-08-06T09:05:51;19.00;99.90
563;DHT22;266;49.514;8.294;2023-08-06T09:08:27;19.00;99.90
563;DHT22;266;49.514;8.294;2023-08-06T09:10:56;19.00;99.90
563;DHT22;266;49.514;8.294;2023-08-06T09:13:24;19.20;99.90
563;DHT22;266;49.514;8.294;2023-08-06T09:15:52;19.70;99.90
563;DHT22;266;49.514;8.294;2023-08-06T09:18:25;20.10;99.90
563;DHT22;266;49.514;8.294;2023-08-06T09:20:53;20.10;99.90
563;DHT22;266;49.514;8.294;2023-08-06T09:23:27;20.10;99.90
563;DHT22;266;49.514;8.294;2023-08-06T09:25:56;20.20;99.90
563;DHT22;266;49.514;8.294;2023-08-06T09:28:24;20.10;99.90
563;DHT22;266;49.514;8.294;2023-08-06T09:30:52;20.00;99.90
563;DHT22;266;49.514;8.294;2023-08-06T09:33:22;19.80;99.90
563;DHT22;266;49.514;8.294;2023-08-06T09:35:50;19.60;99.90
563;DHT22;266;49.514;8.294;2023-08-06T09:38:19;19.20;99.90
563;DHT22;266;49.514;8.294;2023-08-06T09:40:49;18.80;99.90
563;DHT22;266;49.514;8.294;2023-08-06T09:43:19;18.30;99.90
563;DHT22;266;49.514;8.294;2023-08-06T09:45:47;18.10;99.90
563;DHT22;266;49.514;8.294;2023-08-06T09:48:15;18.00;99.90
563;DHT22;266;49.514;8.294;2023-08-06T09:50:43;18.00;99.90
563;DHT22;266;49.514;8.294;2023-08-06T09:53:14;18.00;99.90
563;DHT22;266;49.514;8.294;2023-08-06T09:55:42;18.10;99.90
563;DHT22;266;49.514;8.294;2023-08-06T09:58:11;18.10;99.90
563;DHT22;266;49.514;8.294;2023-08-06T10:00:41;18.00;99.90
563;DHT22;266;49.514;8.294;2023-08-06T10:03:09;18.00;99.90
563;DHT22;266;49.514;8.294;2023-08-06T10:05:40;18.00;99.90
563;DHT22;266;49.514;8.294;2023-08-06T10:08:09;17.90;99.90
563;DHT22;266;49.514;8.294;2023-08-06T10:10:37;17.90;99.90
563;DHT22;266;49.514;8.294;2023-08-06T10:13:06;17.80;99.90
563;DHT22;266;49.514;8.294;2023-08-06T10:15:37;17.70;99.90
563;DHT22;266;49.514;8.294;2023-08-06T10:18:06;17.70;99.90
563;DHT22;266;49.514;8.294;2023-08-06T10:20:34;17.60;99.90
563;DHT22;266;49.514;8.294;2023-08-06T10:23:04;17.50;99.90
563;DHT22;266;49.514;8.294;2023-08-06T10:25:32;17.40;99.90
563;DHT22;266;49.514;8.294;2023-08-06T10:28:07;17.30;99.90
563;DHT22;266;49.514;8.294;2023-08-06T10:30:43;17.30;99.90
563;DHT22;266;49.514;8.294;2023-08-06T10:33:12;17.20;99.90
563;DHT22;266;49.514;8.294;2023-08-06T10:35:41;17.30;99.90
563;DHT22;266;49.514;8.294;2023-08-06T10:38:12;17.30;99.90
563;DHT22;266;49.514;8.294;2023-08-06T10:40:48;17.30;99.90
563;DHT22;266;49.514;8.294;2023-08-06T10:43:25;17.30;99.90
563;DHT22;266;49.514;8.294;2023-08-06T10:45:56;17.30;99.90
563;DHT22;266;49.514;8.294;2023-08-06T10:48:31;17.30;99.90
563;DHT22;266;49.514;8.294;2023-08-06T10:51:01;17.30;99.90
563;DHT22;266;49.514;8.294;2023-08-06T10:53:29;17.40;99.90
563;DHT22;266;49.514;8.294;2023-08-06T10:56:00;17.40;99.90
563;DHT22;266;49.514;8.294;2023-08-06T10:58:31;17.50;99.90
563;DHT22;266;49.514;8.294;2023-08-06T11:01:01;17.60;99.90
563;DHT22;266;49.514;8.294;2023-08-06T11:03:29;17.70;99.90
563;DHT22;266;49.514;8.294;2023-08-06T11:05:59;17.70;99.90
563;DHT22;266;49.514;8.294;2023-08-06T11:08:28;17.80;99.90
563;DHT22;266;49.514;8.294;2023-08-06T11:11:07;17.90;99.90
563;DHT22;266;49.514;8.294;2023-08-06T11:13:35;17.90;99.90
563;DHT22;266;49.514;8.294;2023-08-06T11:16:05;18.00;99.90
563;DHT22;266;49.514;8.294;2023-08-06T11:18:34;18.10;99.90
563;DHT22;266;49.514;8.294;2023-08-06T11:21:02;18.20;99.90
563;DHT22;266;49.514;8.294;2023-08-06T11:23:30;18.30;99.90
563;DHT22;266;49.514;8.294;2023-08-06T11:25:58;18.50;99.90
563;DHT22;266;49.514;8.294;2023-08-06T11:28:26;18.70;99.90
563;DHT22;266;49.514;8.294;2023-08-06T11:30:54;18.90;99.90
563;DHT22;266;49.514;8.294;2023-08-06T11:33:25;18.90;99.90
563;DHT22;266;49.514;8.294;2023-08-06T11:35:55;19.00;99.90
563;DHT22;266;49.514;8.294;2023-08-06T11:38:25;19.10;99.90
563;DHT22;266;49.514;8.294;2023-08-06T11:40:54;19.10;99.90
563;DHT22;266;49.514;8.294;2023-08-06T11:43:22;19.00;99.90
563;DHT22;266;49.514;8.294;2023-08-06T11:45:50;18.90;99.90
563;DHT22;266;49.514;8.294;2023-08-06T11:48:20;18.80;99.90
563;DHT22;266;49.514;8.294;2023-08-06T11:50:54;18.90;99.90
563;DHT22;266;49.514;8.294;2023-08-06T11:53:27;18.80;99.90
563;DHT22;266;49.514;8.294;2023-08-06T11:55:56;18.80;99.90
563;DHT22;266;49.514;8.294;2023-08-06T11:58:23;18.80;99.90
563;DHT22;266;49.514;8.294;2023-08-06T12:00:52;18.80;99.90
563;DHT22;266;49.514;8.294;2023-08-06T12:03:20;18.80;99.90
563;DHT22;266;49.514;8.294;2023-08-06T12:05:55;18.70;99.90
563;DHT22;266;49.514;8.294;2023-08-06T12:08:26;18.70;99.90
563;DHT22;266;49.514;8.294;2023-08-06T12:10:54;18.60;99.90
563;DHT22;266;49.514;8.294;2023-08-06T12:13:22;18.60;99.90
563;DHT22;266;49.514;8.294;2023-08-06T12:15:50;18.60;99.90
563;DHT22;266;49.514;8.294;2023-08-06T12:18:20;18.70;99.90
563;DHT22;266;49.514;8.294;2023-08-06T12:20:47;18.80;99.90
563;DHT22;266;49.514;8.294;2023-08-06T12:23:17;18.90;99.90
563;DHT22;266;49.514;8.294;2023-08-06T12:25:45;19.00;99.90
563;DHT22;266;49.514;8.294;2023-08-06T12:28:13;19.00;99.90
563;DHT22;266;49.514;8.294;2023-08-06T12:30:41;18.90;99.90
563;DHT22;266;49.514;8.294;2023-08-06T12:33:11;18.90;99.90
563;DHT22;266;49.514;8.294;2023-08-06T12:35:39;18.80;99.90
563;DHT22;266;49.514;8.294;2023-08-06T12:38:08;18.80;99.90
563;DHT22;266;49.514;8.294;2023-08-06T12:40:37;18.70;99.90
563;DHT22;266;49.514;8.294;2023-08-06T12:43:09;18.70;99.90
563;DHT22;266;49.514;8.294;2023-08-06T12:45:37;18.60;99.90
563;DHT22;266;49.514;8.294;2023-08-06T12:48:05;18.70;99.90
563;DHT22;266;49.514;8.294;2023-08-06T12:50:33;18.70;99.90
563;DHT22;266;49.514;8.294;2023-08-06T12:53:01;18.80;99.90
563;DHT22;266;49.514;8.294;2023-08-06T12:55:31;18.70;99.90
563;DHT22;266;49.514;8.294;2023-08-06T12:58:00;18.60;99.90
563;DHT22;266;49.514;8.294;2023-08-06T13:00:31;18.50;99.90
563;DHT22;266;49.514;8.294;2023-08-06T13:03:00;18.50;99.90
563;DHT22;266;49.514;8.294;2023-08-06T13:05:28;18.50;99.90
563;DHT22;266;49.514;8.294;2023-08-06T13:07:56;18.40;99.90
563;DHT22;266;49.514;8.294;2023-08-06T13:10:24;18.40;99.90
563;DHT22;266;49.514;8.294;2023-08-06T13:12:54;18.30;99.90
563;DHT22;266;49.514;8.294;2023-08-06T13:15:23;18.30;99.90
563;DHT22;266;49.514;8.294;2023-08-06T13:17:51;18.30;99.90
563;DHT22;266;49.514;8.294;2023-08-06T13:20:19;18.20;99.90
563;DHT22;266;49.514;8.294;2023-08-06T13:22:47;18.20;99.90
563;DHT22;266;49.514;8.294;2023-08-06T13:25:18;18.10;99.90
563;DHT22;266;49.514;8.294;2023-08-06T13:27:46;18.10;99.90
563;DHT22;266;49.514;8.294;2023-08-06T13:30:14;18.00;99.90
563;DHT22;266;49.514;8.294;2023-08-06T13:32:44;18.00;99.90
563;DHT22;266;49.514;8.294;2023-08-06T13:35:12;18.00;99.90
563;DHT22;266;49.514;8.294;2023-08-06T13:37:40;17.90;99.90
563;DHT22;266;49.514;8.294;2023-08-06T13:40:08;17.90;99.90
563;DHT22;266;49.514;8.294;2023-08-06T13:42:36;17.80;99.90
563;DHT22;266;49.514;8.294;2023-08-06T13:45:05;17.80;99.90
563;DHT22;266;49.514;8.294;2023-08-06T13:47:33;17.80;99.90
563;DHT22;266;49.514;8.294;2023-08-06T13:50:03;17.70;99.90
563;DHT22;266;49.514;8.294;2023-08-06T13:52:31;17.70;99.90
563;DHT22;266;49.514;8.294;2023-08-06T13:54:59;17.70;99.90
563;DHT22;266;49.514;8.294;2023-08-06T13:57:27;17.70;99.90
563;DHT22;266;49.514;8.294;2023-08-06T13:59:55;17.70;99.90
563;DHT22;266;49.514;8.294;2023-08-06T14:02:23;17.70;99.90
563;DHT22;266;49.514;8.294;2023-08-06T14:04:52;17.70;99.90
563;DHT22;266;49.514;8.294;2023-08-06T14:07:21;17.70;99.90
563;DHT22;266;49.514;8.294;2023-08-06T14:09:49;17.70;99.90
563;DHT22;266;49.514;8.294;2023-08-06T14:12:17;17.70;99.90
563;DHT22;266;49.514;8.294;2023-08-06T14:14:45;17.70;99.90
563;DHT22;266;49.514;8.294;2023-08-06T14:17:13;17.70;99.90
563;DHT22;266;49.514;8.294;2023-08-06T14:19:42;17.70;99.90
563;DHT22;266;49.514;8.294;2023-08-06T14:22:10;17.60;99.90
563;DHT22;266;49.514;8.294;2023-08-06T14:24:39;17.60;99.90
563;DHT22;266;49.514;8.294;2023-08-06T14:27:08;17.70;99.90
563;DHT22;266;49.514;8.294;2023-08-06T14:29:36;17.60;99.90
563;DHT22;266;49.514;8.294;2023-08-06T14:32:05;17.50;99.90
563;DHT22;266;49.514;8.294;2023-08-06T14:34:33;17.50;99.90
563;DHT22;266;49.514;8.294;2023-08-06T14:37:02;17.50;99.90
563;DHT22;266;49.514;8.294;2023-08-06T14:39:29;17.50;99.90
563;DHT22;266;49.514;8.294;2023-08-06T14:41:59;17.60;99.90
563;DHT22;266;49.514;8.294;2023-08-06T14:44:27;17.60;99.90
563;DHT22;266;49.514;8.294;2023-08-06T14:46:55;17.60;99.90
563;DHT22;266;49.514;8.294;2023-08-06T14:49:23;17.70;99.90
563;DHT22;266;49.514;8.294;2023-08-06T14:51:51;17.70;99.90
563;DHT22;266;49.514;8.294;2023-08-06T14:54:19;17.80;99.90
563;DHT22;266;49.514;8.294;2023-08-06T14:56:47;17.70;99.90
563;DHT22;266;49.514;8.294;2023-08-06T14:59:16;17.50;99.90
563;DHT22;266;49.514;8.294;2023-08-06T15:01:44;17.30;99.90
563;DHT22;266;49.514;8.294;2023-08-06T15:04:12;17.10;99.90
563;DHT22;266;49.514;8.294;2023-08-06T15:06:40;17.00;99.90
563;DHT22;266;49.514;8.294;2023-08-06T15:09:08;16.90;99.90
563;DHT22;266;49.514;8.294;2023-08-06T15:11:36;16.90;99.90
563;DHT22;266;49.514;8.294;2023-08-06T15:14:09;16.80;99.90
563;DHT22;266;49.514;8.294;2023-08-06T15:16:39;16.90;99.90
563;DHT22;266;49.514;8.294;2023-08-06T15:19:07;16.90;99.90
563;DHT22;266;49.514;8.294;2023-08-06T15:21:35;16.80;99.90
563;DHT22;266;49.514;8.294;2023-08-06T15:24:03;16.90;99.90
563;DHT22;266;49.514;8.294;2023-08-06T15:26:31;16.90;99.90
563;DHT22;266;49.514;8.294;2023-08-06T15:29:00;16.90;99.90
563;DHT22;266;49.514;8.294;2023-08-06T15:31:36;16.90;99.90
563;DHT22;266;49.514;8.294;2023-08-06T15:34:06;16.90;99.90
563;DHT22;266;49.514;8.294;2023-08-06T15:36:34;17.00;99.90
563;DHT22;266;49.514;8.294;2023-08-06T15:39:02;17.10;99.90
563;DHT22;266;49.514;8.294;2023-08-06T15:41:31;17.20;99.90
563;DHT22;266;49.514;8.294;2023-08-06T15:43:59;17.30;99.90
563;DHT22;266;49.514;8.294;2023-08-06T15:46:27;17.30;99.90
563;DHT22;266;49.514;8.294;2023-08-06T15:48:55;17.30;99.90
563;DHT22;266;49.514;8.294;2023-08-06T15:51:24;17.30;99.90
563;DHT22;266;49.514;8.294;2023-08-06T15:53:52;17.40;99.90
563;DHT22;266;49.514;8.294;2023-08-06T15:56:20;17.40;99.90
563;DHT22;266;49.514;8.294;2023-08-06T15:58:48;17.40;99.90
563;DHT22;266;49.514;8.294;2023-08-06T16:01:16;17.40;99.90
563;DHT22;266;49.514;8.294;2023-08-06T16:03:44;17.40;99.90
563;DHT22;266;49.514;8.294;2023-08-06T16:06:12;17.50;99.90
563;DHT22;266;49.514;8.294;2023-08-06T16:08:41;17.50;99.90
563;DHT22;266;49.514;8.294;2023-08-06T16:11:09;17.40;99.90
563;DHT22;266;49.514;8.294;2023-08-06T16:13:37;17.40;99.90
563;DHT22;266;49.514;8.294;2023-08-06T16:16:05;17.30;99.90
563;DHT22;266;49.514;8.294;2023-08-06T16:18:33;17.30;99.90
563;DHT22;266;49.514;8.294;2023-08-06T16:21:01;17.30;99.90
563;DHT22;266;49.514;8.294;2023-08-06T16:23:29;17.30;99.90
563;DHT22;266;49.514;8.294;2023-08-06T16:25:58;17.30;99.90
563;DHT22;266;49.514;8.294;2023-08-06T16:28:26;17.20;99.90
563;DHT22;266;49.514;8.294;2023-08-06T16:30:55;17.20;99.90
563;DHT22;266;49.514;8.294;2023-08-06T16:33:23;17.10;99.90
563;DHT22;266;49.514;8.294;2023-08-06T16:35:51;17.10;99.90
563;DHT22;266;49.514;8.294;2023-08-06T16:38:19;17.00;99.90
563;DHT22;266;49.514;8.294;2023-08-06T16:40:52;17.00;99.90
563;DHT22;266;49.514;8.294;2023-08-06T16:43:22;16.90;99.90